Time;durP1;ratioP1;P1;durP2;ratioP2;P2;SDS_P1;SDS_P2;PMS_P1;PMS_P2;Temp;Humidity;BMP_temperature;BMP_pressure;BME280_temperature;BME280_humidity;BME280_pressure;Samples;Min_cycle;Max_cycle;Signal;HPM_P1;HPM_P2
2022/03/19 00:01:02;;;;;;;;;5.00;5.00;;;;;;;;5047487;28;45819;-62
2022/03/19 00:03:27;;;;;;;;;4.25;4.00;;;;;;;;5054207;28;47849;-63
2022/03/19 00:05:53;;;;;;;;;4.00;4.00;;;;;;;;5048978;28;45738;-62
2022/03/19 00:08:19;;;;;;;;;3.00;3.00;;;;;;;;5048703;28;45464;-62
2022/03/19 00:10:44;;;;;;;;;3.75;3.75;;;;;;;;5067262;28;45310;-62
2022/03/19 00:13:10;;;;;;;;;6.50;4.00;;;;;;;;5065253;28;45970;-63
2022/03/19 00:15:35;;;;;;;;;6.25;5.00;;;;;;;;5055495;28;46334;-63
2022/03/19 00:18:01;;;;;;;;;7.75;5.75;;;;;;;;5066456;28;45397;-63
2022/03/19 00:20:26;;;;;;;;;4.00;4.00;;;;;;;;5048504;28;45564;-63
2022/03/19 00:22:51;;;;;;;;;7.00;5.00;;;;;;;;5067153;28;46338;-62
2022/03/19 00:25:16;;;;;;;;;7.00;6.00;;;;;;;;5067049;28;46185;-63
2022/03/19 00:27:42;;;;;;;;;4.25;4.25;;;;;;;;5072142;28;45358;-63
2022/03/19 00:30:08;;;;;;;;;4.75;2.00;;;;;;;;5068496;28;45376;-61
2022/03/19 00:32:33;;;;;;;;;5.50;4.50;;;;;;;;5048904;28;48038;-61
2022/03/19 00:34:59;;;;;;;;;4.75;3.50;;;;;;;;5048777;28;45441;-63
2022/03/19 00:37:24;;;;;;;;;6.75;6.75;;;;;;;;5066989;28;45943;-64
2022/03/19 00:39:49;;;;;;;;;7.50;6.00;;;;;;;;5070096;28;45515;-62
2022/03/19 00:42:14;;;;;;;;;7.25;5.50;;;;;;;;5070148;28;46473;-63
2022/03/19 00:44:40;;;;;;;;;4.25;3.50;;;;;;;;5047101;28;46256;-63
2022/03/19 00:47:05;;;;;;;;;6.50;5.50;;;;;;;;5048578;28;45878;-62
2022/03/19 00:49:30;;;;;;;;;5.25;4.50;;;;;;;;5066200;28;45479;-62
2022/03/19 00:51:56;;;;;;;;;5.25;5.25;;;;;;;;5049629;28;47463;-63
2022/03/19 00:54:21;;;;;;;;;3.50;3.50;;;;;;;;5057025;28;45918;-63
2022/03/19 00:56:47;;;;;;;;;3.00;3.00;;;;;;;;5064938;28;45491;-63
2022/03/19 00:59:12;;;;;;;;;7.00;6.00;;;;;;;;5066525;28;45425;-64
2022/03/19 01:01:38;;;;;;;;;5.75;3.75;;;;;;;;5066761;28;45624;-63
2022/03/19 01:04:03;;;;;;;;;2.75;2.75;;;;;;;;5067528;28;45588;-63
2022/03/19 01:06:29;;;;;;;;;6.25;4.00;;;;;;;;5070558;28;45785;-62
2022/03/19 01:08:54;;;;;;;;;2.25;2.25;;;;;;;;5070170;28;45487;-63
2022/03/19 01:11:23;;;;;;;;;3.50;3.00;;;;;;;;5051821;28;47581;-63
2022/03/19 01:13:49;;;;;;;;;2.75;2.75;;;;;;;;5051879;28;46201;-63
2022/03/19 01:16:17;;;;;;;;;3.75;3.75;;;;;;;;5051291;28;45645;-63
2022/03/19 01:18:42;;;;;;;;;3.00;3.00;;;;;;;;5072558;28;45563;-63
2022/03/19 01:21:08;;;;;;;;;4.00;4.00;;;;;;;;5070909;28;46069;-62
2022/03/19 01:23:33;;;;;;;;;3.00;3.00;;;;;;;;5069569;27;45344;-63
2022/03/19 01:25:58;;;;;;;;;2.50;2.25;;;;;;;;5051835;28;45450;-62
2022/03/19 01:28:23;;;;;;;;;3.25;3.00;;;;;;;;5050247;27;45502;-64
2022/03/19 01:30:49;;;;;;;;;3.00;3.00;;;;;;;;5054280;28;47962;-63
2022/03/19 01:33:14;;;;;;;;;3.00;2.00;;;;;;;;5072752;28;45317;-63
2022/03/19 01:35:39;;;;;;;;;5.00;3.00;;;;;;;;5035656;28;45413;-64
2022/03/19 01:38:05;;;;;;;;;3.50;2.75;;;;;;;;5031422;28;45446;-63
2022/03/19 01:40:30;;;;;;;;;3.25;3.25;;;;;;;;5031121;28;48433;-63
2022/03/19 01:42:57;;;;;;;;;2.50;2.25;;;;;;;;5051490;28;45564;-63
2022/03/19 01:45:23;;;;;;;;;3.00;3.00;;;;;;;;5035268;28;45769;-63
2022/03/19 01:47:49;;;;;;;;;3.00;3.00;;;;;;;;5031293;28;45477;-63
2022/03/19 01:50:15;;;;;;;;;1.25;1.25;;;;;;;;5025117;28;47981;-63
2022/03/19 01:52:41;;;;;;;;;4.25;3.75;;;;;;;;5030936;28;45547;-63
2022/03/19 01:55:08;;;;;;;;;4.00;2.00;;;;;;;;5031079;28;45694;-62
2022/03/19 01:57:38;;;;;;;;;2.50;2.25;;;;;;;;5032267;28;45461;-63
2022/03/19 02:00:05;;;;;;;;;2.00;2.00;;;;;;;;5036792;28;48555;-63
2022/03/19 02:02:31;;;;;;;;;1.00;1.00;;;;;;;;5043833;28;45568;-62
2022/03/19 02:04:58;;;;;;;;;7.00;3.00;;;;;;;;5029777;28;45392;-63
2022/03/19 02:07:23;;;;;;;;;4.25;2.00;;;;;;;;5049093;28;45556;-62
2022/03/19 02:09:48;;;;;;;;;3.00;3.00;;;;;;;;5033416;28;47932;-63
2022/03/19 02:12:13;;;;;;;;;2.25;1.50;;;;;;;;5051646;28;45319;-63
2022/03/19 02:14:39;;;;;;;;;3.00;2.00;;;;;;;;5031734;28;45514;-63
2022/03/19 02:17:05;;;;;;;;;3.75;3.75;;;;;;;;5048700;28;45285;-62
2022/03/19 02:19:30;;;;;;;;;4.00;2.50;;;;;;;;5029558;28;47390;-62
2022/03/19 02:21:55;;;;;;;;;4.00;4.00;;;;;;;;5050904;28;45584;-63
2022/03/19 02:27:05;;;;;;;;;4.00;3.75;;;;;;;;5048892;28;45353;-62
2022/03/19 02:29:30;;;;;;;;;2.25;2.25;;;;;;;;5024472;28;48238;-63
2022/03/19 02:32:00;;;;;;;;;3.25;3.00;;;;;;;;5030474;28;45701;-62
2022/03/19 02:34:26;;;;;;;;;4.25;3.25;;;;;;;;5030740;28;45679;-64
2022/03/19 02:36:52;;;;;;;;;4.50;3.00;;;;;;;;5050535;28;45549;-63
2022/03/19 02:39:18;;;;;;;;;2.50;2.50;;;;;;;;5050637;28;47550;-63
2022/03/19 02:41:44;;;;;;;;;5.75;4.25;;;;;;;;5047109;28;45524;-63
2022/03/19 02:44:10;;;;;;;;;3.00;3.00;;;;;;;;5052498;28;45441;-63
2022/03/19 02:46:37;;;;;;;;;4.00;4.00;;;;;;;;5032590;28;45611;-63
2022/03/19 02:49:02;;;;;;;;;4.00;4.00;;;;;;;;5051882;28;45997;-62
2022/03/19 02:51:27;;;;;;;;;4.50;4.00;;;;;;;;5051792;28;45886;-63
2022/03/19 02:53:53;;;;;;;;;4.75;4.75;;;;;;;;5052071;28;45591;-62
2022/03/19 02:56:18;;;;;;;;;5.50;5.00;;;;;;;;5052941;28;45584;-62
2022/03/19 02:58:43;;;;;;;;;5.25;4.75;;;;;;;;5046395;28;48487;-62
2022/03/19 03:01:08;;;;;;;;;4.75;4.75;;;;;;;;5050840;28;45504;-62
2022/03/19 03:03:34;;;;;;;;;5.75;4.50;;;;;;;;5055289;28;45489;-62
2022/03/19 03:05:59;;;;;;;;;4.00;4.00;;;;;;;;5052194;28;45373;-60
2022/03/19 03:08:24;;;;;;;;;4.00;4.00;;;;;;;;5047128;28;48834;-62
2022/03/19 03:10:50;;;;;;;;;5.25;5.25;;;;;;;;5046566;28;45416;-62
2022/03/19 03:13:15;;;;;;;;;4.00;4.00;;;;;;;;5049585;28;45734;-61
2022/03/19 03:15:40;;;;;;;;;5.50;5.50;;;;;;;;5054527;28;45526;-61
2022/03/19 03:18:05;;;;;;;;;5.75;5.75;;;;;;;;5048234;28;50750;-61
2022/03/19 03:20:31;;;;;;;;;8.50;6.50;;;;;;;;5050718;28;45632;-61
2022/03/19 03:22:56;;;;;;;;;4.00;4.00;;;;;;;;5046127;28;45607;-61
2022/03/19 03:25:21;;;;;;;;;6.25;4.50;;;;;;;;5053078;28;45335;-62
2022/03/19 03:27:47;;;;;;;;;6.75;5.50;;;;;;;;5053167;28;46614;-62
2022/03/19 03:30:12;;;;;;;;;9.00;7.00;;;;;;;;5056546;28;45336;-62
2022/03/19 03:32:37;;;;;;;;;9.00;8.00;;;;;;;;5052649;28;45976;-63
2022/03/19 03:35:03;;;;;;;;;3.75;3.75;;;;;;;;5046799;28;45640;-62
2022/03/19 03:37:28;;;;;;;;;9.75;8.50;;;;;;;;5047664;28;47495;-62
2022/03/19 03:39:53;;;;;;;;;0.00;0.00;;;;;;;;5050404;28;45486;-62
2022/03/19 03:42:19;;;;;;;;;7.50;6.50;;;;;;;;5057511;28;45430;-62
2022/03/19 03:44:44;;;;;;;;;7.75;7.75;;;;;;;;5044098;28;45542;-63
2022/03/19 03:47:09;;;;;;;;;9.25;9.25;;;;;;;;5045373;28;46518;-62
2022/03/19 03:49:34;;;;;;;;;7.75;7.75;;;;;;;;5046856;28;46372;-62
2022/03/19 03:51:59;;;;;;;;;10.00;9.00;;;;;;;;5052635;28;45381;-60
2022/03/19 03:54:25;;;;;;;;;13.50;11.25;;;;;;;;5054444;28;45368;-61
2022/03/19 03:56:50;;;;;;;;;8.75;8.00;;;;;;;;5045953;28;48641;-61
2022/03/19 03:59:16;;;;;;;;;10.00;8.00;;;;;;;;5052199;28;45522;-62
2022/03/19 04:01:41;;;;;;;;;13.50;12.75;;;;;;;;5052303;28;45935;-62
2022/03/19 04:04:06;;;;;;;;;12.50;11.00;;;;;;;;5051462;28;45947;-62
2022/03/19 04:06:31;;;;;;;;;10.25;10.25;;;;;;;;5052620;28;47954;-61
2022/03/19 04:08:57;;;;;;;;;11.50;11.50;;;;;;;;5041887;28;45573;-63
2022/03/19 04:11:22;;;;;;;;;12.50;12.50;;;;;;;;5045826;28;45888;-63
2022/03/19 04:13:47;;;;;;;;;13.50;12.00;;;;;;;;5051953;28;45725;-62
2022/03/19 04:16:13;;;;;;;;;11.50;11.00;;;;;;;;5049265;28;47806;-62
2022/03/19 04:18:38;;;;;;;;;13.75;13.25;;;;;;;;5053321;28;45437;-63
2022/03/19 04:21:03;;;;;;;;;11.50;10.00;;;;;;;;5054820;28;45569;-62
2022/03/19 04:23:28;;;;;;;;;14.75;13.75;;;;;;;;5041240;28;45493;-62
2022/03/19 04:25:54;;;;;;;;;12.50;11.75;;;;;;;;5040493;28;48032;-62
2022/03/19 04:28:19;;;;;;;;;15.25;14.25;;;;;;;;5048047;28;45975;-62
2022/03/19 04:30:44;;;;;;;;;16.50;15.25;;;;;;;;5053371;28;45400;-63
2022/03/19 04:33:09;;;;;;;;;17.00;14.00;;;;;;;;5047873;28;45527;-63
2022/03/19 04:38:20;;;;;;;;;15.25;14.25;;;;;;;;5051259;28;45415;-62
2022/03/19 04:40:47;;;;;;;;;15.75;14.00;;;;;;;;5046342;28;45388;-63
2022/03/19 04:43:12;;;;;;;;;16.75;16.00;;;;;;;;5052508;28;45457;-63
2022/03/19 04:45:38;;;;;;;;;17.25;15.50;;;;;;;;5054999;28;46290;-63
2022/03/19 04:48:04;;;;;;;;;18.00;16.75;;;;;;;;5058811;28;46925;-63
2022/03/19 04:50:29;;;;;;;;;16.50;15.75;;;;;;;;5044160;28;45424;-61
2022/03/19 04:52:55;;;;;;;;;20.75;20.25;;;;;;;;5048731;28;45451;-61
2022/03/19 04:55:21;;;;;;;;;19.25;16.75;;;;;;;;5054956;28;45528;-63
2022/03/19 04:57:47;;;;;;;;;18.75;16.00;;;;;;;;5054765;28;45940;-62
2022/03/19 05:00:13;;;;;;;;;19.50;19.50;;;;;;;;5056157;28;45520;-63
2022/03/19 05:02:38;;;;;;;;;20.00;19.25;;;;;;;;5049146;28;45704;-63
2022/03/19 05:05:03;;;;;;;;;20.25;18.75;;;;;;;;5048183;28;48730;-62
2022/03/19 05:07:35;;;;;;;;;18.75;16.50;;;;;;;;5048822;28;45740;-63
2022/03/19 05:12:44;;;;;;;;;25.25;21.00;;;;;;;;5053207;28;45263;-63
2022/03/19 05:15:14;;;;;;;;;18.00;15.50;;;;;;;;5055060;28;45296;-62
2022/03/19 05:17:39;;;;;;;;;24.25;20.00;;;;;;;;5045744;28;45467;-63
2022/03/19 05:20:05;;;;;;;;;22.75;19.00;;;;;;;;5042274;28;45473;-62
2022/03/19 05:22:30;;;;;;;;;19.00;17.50;;;;;;;;5047182;28;45535;-63
2022/03/19 05:24:56;;;;;;;;;21.25;21.25;;;;;;;;5053346;28;47705;-63
2022/03/19 05:27:22;;;;;;;;;24.50;17.50;;;;;;;;5047628;28;45487;-64
2022/03/19 05:29:48;;;;;;;;;23.50;22.00;;;;;;;;5041746;28;45592;-63
2022/03/19 05:32:13;;;;;;;;;25.50;23.25;;;;;;;;5054001;28;46077;-63
2022/03/19 05:34:39;;;;;;;;;20.50;20.00;;;;;;;;5046848;28;48404;-62
2022/03/19 05:37:04;;;;;;;;;28.50;22.75;;;;;;;;5050404;28;45488;-64
2022/03/19 05:39:33;;;;;;;;;23.00;22.75;;;;;;;;5042871;28;45691;-64
2022/03/19 05:41:59;;;;;;;;;25.75;21.50;;;;;;;;5050155;28;45615;-64
2022/03/19 05:44:24;;;;;;;;;31.00;29.75;;;;;;;;5068732;28;45685;-65
2022/03/19 05:46:50;;;;;;;;;22.50;21.00;;;;;;;;5050961;28;45627;-64
2022/03/19 05:49:15;;;;;;;;;26.00;21.25;;;;;;;;5070073;28;45509;-64
2022/03/19 05:51:41;;;;;;;;;29.50;25.25;;;;;;;;5057553;28;45388;-64
2022/03/19 05:54:06;;;;;;;;;30.50;24.75;;;;;;;;5050563;28;48649;-64
2022/03/19 05:56:32;;;;;;;;;28.25;24.25;;;;;;;;5051451;28;45747;-64
2022/03/19 05:58:58;;;;;;;;;30.00;23.00;;;;;;;;5069719;28;45666;-65
2022/03/19 06:01:27;;;;;;;;;26.00;24.75;;;;;;;;5068742;28;45393;-62
2022/03/19 06:03:53;;;;;;;;;23.50;23.00;;;;;;;;5071520;28;45889;-64
2022/03/19 06:06:18;;;;;;;;;27.25;24.00;;;;;;;;5054598;28;46370;-64
2022/03/19 06:08:43;;;;;;;;;26.00;23.50;;;;;;;;5051191;28;45508;-64
2022/03/19 06:11:08;;;;;;;;;29.50;25.75;;;;;;;;5051120;28;45479;-64
2022/03/19 06:13:33;;;;;;;;;31.75;29.25;;;;;;;;5051321;28;47657;-64
2022/03/19 06:15:59;;;;;;;;;26.25;25.00;;;;;;;;5052990;28;45402;-63
2022/03/19 06:18:24;;;;;;;;;31.00;28.50;;;;;;;;5056658;28;45410;-64
2022/03/19 06:20:49;;;;;;;;;30.25;29.00;;;;;;;;5069548;28;46436;-64
2022/03/19 06:23:14;;;;;;;;;33.75;30.75;;;;;;;;5045629;28;47385;-64
2022/03/19 06:25:39;;;;;;;;;35.00;30.50;;;;;;;;5051405;28;45489;-65
2022/03/19 06:28:05;;;;;;;;;35.75;35.75;;;;;;;;5060606;28;45405;-65
2022/03/19 06:30:32;;;;;;;;;39.00;35.50;;;;;;;;5060752;28;45506;-64
2022/03/19 06:32:58;;;;;;;;;35.00;32.25;;;;;;;;5054975;28;47877;-64
2022/03/19 06:38:29;;;;;;;;;40.50;36.00;;;;;;;;5037720;28;45412;-65
2022/03/19 06:40:54;;;;;;;;;36.00;34.75;;;;;;;;5038324;28;45519;-64
2022/03/19 06:43:19;;;;;;;;;39.25;35.75;;;;;;;;5034587;28;45582;-64
2022/03/19 06:45:45;;;;;;;;;47.50;37.25;;;;;;;;5036007;28;45487;-64
2022/03/19 06:48:10;;;;;;;;;38.50;33.25;;;;;;;;5040713;28;45533;-64
2022/03/19 06:50:36;;;;;;;;;42.50;38.50;;;;;;;;5043920;28;45518;-65
2022/03/19 06:53:01;;;;;;;;;43.75;37.25;;;;;;;;5047421;28;48455;-64
2022/03/19 06:55:27;;;;;;;;;39.00;35.00;;;;;;;;5047408;28;45638;-64
2022/03/19 06:57:52;;;;;;;;;40.25;34.75;;;;;;;;5050344;28;45468;-65
2022/03/19 07:00:17;;;;;;;;;51.50;43.00;;;;;;;;5035894;28;45417;-65
2022/03/19 07:02:46;;;;;;;;;45.25;37.75;;;;;;;;5033802;28;47906;-64
2022/03/19 07:05:11;;;;;;;;;46.00;38.75;;;;;;;;5013464;28;46208;-64
2022/03/19 07:07:37;;;;;;;;;40.25;36.75;;;;;;;;5031502;28;45436;-64
2022/03/19 07:10:02;;;;;;;;;46.25;40.00;;;;;;;;5045505;28;45684;-64
2022/03/19 07:12:27;;;;;;;;;52.25;41.50;;;;;;;;5056937;28;48510;-65
2022/03/19 07:14:52;;;;;;;;;48.50;38.75;;;;;;;;5067015;28;45523;-65
2022/03/19 07:17:18;;;;;;;;;53.50;41.75;;;;;;;;5065326;28;45646;-64
2022/03/19 07:19:43;;;;;;;;;50.75;40.25;;;;;;;;5057689;28;45339;-64
2022/03/19 07:22:08;;;;;;;;;51.25;41.50;;;;;;;;5050843;28;47654;-64
2022/03/19 07:24:35;;;;;;;;;54.00;43.25;;;;;;;;5074893;28;45513;-64
2022/03/19 07:27:01;;;;;;;;;48.75;39.50;;;;;;;;5050362;28;45709;-64
2022/03/19 07:29:26;;;;;;;;;60.00;46.50;;;;;;;;5050488;28;45462;-65
2022/03/19 07:31:51;;;;;;;;;52.50;44.50;;;;;;;;5065772;28;46275;-65
2022/03/19 07:34:19;;;;;;;;;53.25;42.00;;;;;;;;5068751;27;45504;-63
2022/03/19 07:36:45;;;;;;;;;56.25;44.25;;;;;;;;5055404;28;45437;-65
2022/03/19 07:39:10;;;;;;;;;49.00;40.25;;;;;;;;5051240;28;45424;-64
2022/03/19 07:41:48;;;;;;;;;58.00;45.75;;;;;;;;5049730;28;47113;-65
2022/03/19 07:44:14;;;;;;;;;58.50;46.00;;;;;;;;5050252;28;45435;-64
2022/03/19 07:46:42;;;;;;;;;54.25;45.25;;;;;;;;5050501;28;45362;-64
2022/03/19 07:49:07;;;;;;;;;57.25;47.25;;;;;;;;5070703;28;45447;-65
2022/03/19 07:51:32;;;;;;;;;54.25;44.50;;;;;;;;5056850;28;47636;-65
2022/03/19 07:53:58;;;;;;;;;54.50;45.50;;;;;;;;5050017;28;45534;-64
2022/03/19 07:56:24;;;;;;;;;56.75;47.50;;;;;;;;5050277;28;45790;-64
2022/03/19 07:58:50;;;;;;;;;59.25;47.50;;;;;;;;5068389;28;45453;-64
2022/03/19 08:01:19;;;;;;;;;57.75;47.25;;;;;;;;5050068;28;46541;-65
2022/03/19 08:03:45;;;;;;;;;61.25;49.00;;;;;;;;5054896;28;45757;-64
2022/03/19 08:06:10;;;;;;;;;58.50;48.00;;;;;;;;5051671;28;45412;-65
2022/03/19 08:08:37;;;;;;;;;52.75;43.50;;;;;;;;5050182;28;45561;-64
2022/03/19 08:11:02;;;;;;;;;47.75;41.75;;;;;;;;5049818;28;47479;-65
2022/03/19 08:13:28;;;;;;;;;56.25;44.75;;;;;;;;5068260;28;45465;-64
2022/03/19 08:15:53;;;;;;;;;58.25;47.25;;;;;;;;5071492;27;45483;-64
2022/03/19 08:18:19;;;;;;;;;55.00;46.25;;;;;;;;5060714;28;45677;-64
2022/03/19 08:20:46;;;;;;;;;56.75;46.00;;;;;;;;5057125;28;48601;-64
2022/03/19 08:23:12;;;;;;;;;67.75;50.00;;;;;;;;5045877;28;46527;-64
2022/03/19 08:25:38;;;;;;;;;61.25;49.75;;;;;;;;5071730;28;45438;-64
2022/03/19 08:28:03;;;;;;;;;59.50;46.75;;;;;;;;5054606;28;45370;-64
2022/03/19 08:30:29;;;;;;;;;62.00;51.00;;;;;;;;5060610;28;47685;-65
2022/03/19 08:32:54;;;;;;;;;60.00;47.50;;;;;;;;5070021;27;45763;-65
2022/03/19 08:35:19;;;;;;;;;62.00;48.50;;;;;;;;5044155;28;45393;-65
2022/03/19 08:37:45;;;;;;;;;66.25;51.50;;;;;;;;5055610;28;45432;-66
2022/03/19 08:40:16;;;;;;;;;62.25;49.00;;;;;;;;5053245;28;48711;-65
2022/03/19 08:42:42;;;;;;;;;45.00;37.75;;;;;;;;5065476;27;46096;-65
2022/03/19 08:45:07;;;;;;;;;62.00;50.00;;;;;;;;5055927;28;45487;-65
2022/03/19 08:47:33;;;;;;;;;53.00;42.00;;;;;;;;5049644;28;45346;-64
2022/03/19 08:49:58;;;;;;;;;56.75;47.00;;;;;;;;5049349;28;47360;-65
2022/03/19 08:52:24;;;;;;;;;55.25;43.75;;;;;;;;5055415;28;45454;-65
2022/03/19 08:54:49;;;;;;;;;58.75;48.25;;;;;;;;5054977;28;45419;-65
2022/03/19 08:57:14;;;;;;;;;66.50;51.25;;;;;;;;5052005;28;45374;-64
2022/03/19 08:59:39;;;;;;;;;66.25;50.75;;;;;;;;5049158;28;48576;-64
2022/03/19 09:02:04;;;;;;;;;62.75;51.75;;;;;;;;5049255;28;45422;-64
2022/03/19 09:04:31;;;;;;;;;56.25;46.00;;;;;;;;5055355;28;45412;-64
2022/03/19 09:06:57;;;;;;;;;59.00;48.00;;;;;;;;5053152;28;45513;-65
2022/03/19 09:09:22;;;;;;;;;60.50;48.25;;;;;;;;5056825;28;45453;-65
2022/03/19 09:11:48;;;;;;;;;61.50;49.75;;;;;;;;5049221;28;45468;-65
2022/03/19 09:14:15;;;;;;;;;61.00;49.25;;;;;;;;5055094;28;45472;-65
2022/03/19 09:16:40;;;;;;;;;64.00;50.00;;;;;;;;5049431;28;45420;-65
2022/03/19 09:19:06;;;;;;;;;65.75;52.50;;;;;;;;5054879;28;45984;-66
2022/03/19 09:21:31;;;;;;;;;52.75;43.50;;;;;;;;5059828;28;45453;-66
2022/03/19 09:23:57;;;;;;;;;54.00;45.50;;;;;;;;5047908;28;45489;-66
2022/03/19 09:26:22;;;;;;;;;52.25;43.75;;;;;;;;5054837;28;45445;-66
2022/03/19 09:28:48;;;;;;;;;54.00;44.75;;;;;;;;5048566;28;48604;-65
2022/03/19 09:31:15;;;;;;;;;52.25;42.75;;;;;;;;5054663;28;45349;-66
2022/03/19 09:33:42;;;;;;;;;55.50;45.50;;;;;;;;5055307;28;45530;-65
2022/03/19 09:36:07;;;;;;;;;51.75;43.00;;;;;;;;5049700;28;45411;-65
2022/03/19 09:38:32;;;;;;;;;47.75;40.00;;;;;;;;5054520;28;46168;-66
2022/03/19 09:40:58;;;;;;;;;52.75;42.75;;;;;;;;5048705;28;45442;-66
2022/03/19 09:43:27;;;;;;;;;58.50;47.75;;;;;;;;5054644;28;45823;-66
2022/03/19 09:45:53;;;;;;;;;50.25;42.75;;;;;;;;5055095;28;45436;-66
2022/03/19 09:48:21;;;;;;;;;52.50;42.50;;;;;;;;5056149;28;45967;-66
2022/03/19 09:50:51;;;;;;;;;55.75;45.00;;;;;;;;5048372;28;45445;-66
2022/03/19 09:53:17;;;;;;;;;52.50;41.75;;;;;;;;5048714;28;45685;-66
2022/03/19 09:55:42;;;;;;;;;57.75;45.00;;;;;;;;5048602;28;45574;-66
2022/03/19 09:58:08;;;;;;;;;52.75;42.75;;;;;;;;5036262;28;48836;-66
2022/03/19 10:00:33;;;;;;;;;53.00;43.00;;;;;;;;5058364;28;45437;-66
2022/03/19 10:03:03;;;;;;;;;59.25;47.50;;;;;;;;5046890;28;45445;-66
2022/03/19 10:10:57;;;;;;;;;50.75;41.75;;;;;;;;5053875;28;45418;-65
2022/03/19 10:13:25;;;;;;;;;50.75;43.25;;;;;;;;5050248;28;45488;-65
2022/03/19 10:15:50;;;;;;;;;50.50;40.75;;;;;;;;5054582;28;45412;-65
2022/03/19 10:18:16;;;;;;;;;48.50;41.25;;;;;;;;5055131;28;46152;-64
2022/03/19 10:20:42;;;;;;;;;52.50;42.50;;;;;;;;5048280;28;45536;-66
2022/03/19 10:23:07;;;;;;;;;52.25;41.25;;;;;;;;5048429;28;45510;-64
2022/03/19 10:25:32;;;;;;;;;43.75;36.25;;;;;;;;5054034;28;45475;-65
2022/03/19 10:28:06;;;;;;;;;53.50;45.25;;;;;;;;5052462;28;47327;-66
2022/03/19 10:30:38;;;;;;;;;48.25;38.75;;;;;;;;5058822;28;45431;-65
2022/03/19 10:33:06;;;;;;;;;53.75;43.50;;;;;;;;5047798;28;45455;-65
2022/03/19 10:35:36;;;;;;;;;42.00;36.50;;;;;;;;5061154;28;45318;-66
2022/03/19 10:38:24;;;;;;;;;51.00;42.00;;;;;;;;5069377;28;46301;-65
2022/03/19 10:40:54;;;;;;;;;51.50;42.50;;;;;;;;5069003;28;45475;-65
2022/03/19 10:43:22;;;;;;;;;50.25;40.75;;;;;;;;5051625;28;45414;-65
2022/03/19 10:45:48;;;;;;;;;46.25;38.75;;;;;;;;5073934;28;45373;-65
2022/03/19 10:48:18;;;;;;;;;50.00;40.25;;;;;;;;5053233;28;46640;-65
2022/03/19 10:50:43;;;;;;;;;48.00;39.75;;;;;;;;5051087;28;46207;-65
2022/03/19 10:53:08;;;;;;;;;49.50;41.00;;;;;;;;5051133;27;45495;-66
2022/03/19 10:55:34;;;;;;;;;52.25;41.50;;;;;;;;5051125;28;45343;-66
2022/03/19 10:57:59;;;;;;;;;47.75;40.25;;;;;;;;5052596;28;48044;-66
2022/03/19 11:00:24;;;;;;;;;50.00;43.00;;;;;;;;5073824;28;45597;-66
2022/03/19 11:02:50;;;;;;;;;41.50;37.25;;;;;;;;5051040;28;45501;-65
2022/03/19 11:05:18;;;;;;;;;51.50;40.75;;;;;;;;5050933;28;45694;-64
2022/03/19 11:07:44;;;;;;;;;51.00;41.50;;;;;;;;5050469;28;48456;-65
2022/03/19 11:10:10;;;;;;;;;52.50;42.00;;;;;;;;5069290;28;45544;-65
2022/03/19 11:12:40;;;;;;;;;50.25;41.25;;;;;;;;5056909;28;45418;-66
2022/03/19 11:15:07;;;;;;;;;49.75;41.75;;;;;;;;5067200;27;45428;-65
2022/03/19 11:17:33;;;;;;;;;47.75;40.75;;;;;;;;5068468;28;46489;-66
2022/03/19 11:20:05;;;;;;;;;48.00;41.25;;;;;;;;5068785;28;45521;-65
2022/03/19 11:22:41;;;;;;;;;52.75;41.75;;;;;;;;5050525;28;45531;-65
2022/03/19 11:25:13;;;;;;;;;49.75;41.25;;;;;;;;5051264;28;45507;-65
2022/03/19 11:27:41;;;;;;;;;51.50;43.00;;;;;;;;5075058;28;45823;-66
2022/03/19 11:30:13;;;;;;;;;55.00;46.25;;;;;;;;5056837;28;45625;-65
2022/03/19 11:32:39;;;;;;;;;45.25;39.50;;;;;;;;5046929;28;45292;-65
2022/03/19 11:35:05;;;;;;;;;51.00;44.00;;;;;;;;5050278;28;45372;-66
2022/03/19 11:37:56;;;;;;;;;52.50;44.75;;;;;;;;5050200;28;47553;-66
2022/03/19 11:40:22;;;;;;;;;59.25;47.75;;;;;;;;5068526;28;45555;-66
2022/03/19 11:42:54;;;;;;;;;54.25;43.25;;;;;;;;5054752;28;45461;-66
2022/03/19 11:45:20;;;;;;;;;51.75;41.50;;;;;;;;5054199;28;45618;-66
2022/03/19 11:47:45;;;;;;;;;51.50;41.25;;;;;;;;5050015;28;49267;-66
2022/03/19 11:50:19;;;;;;;;;48.00;42.00;;;;;;;;5068028;28;45548;-66
2022/03/19 11:52:53;;;;;;;;;43.25;36.75;;;;;;;;5068523;28;45496;-66
2022/03/19 11:55:19;;;;;;;;;52.25;42.00;;;;;;;;5049847;28;45456;-67
2022/03/19 11:57:49;;;;;;;;;56.25;47.75;;;;;;;;5054834;28;47725;-67
2022/03/19 12:00:18;;;;;;;;;39.50;34.75;;;;;;;;5056397;28;46379;-66
2022/03/19 12:03:05;;;;;;;;;50.25;42.25;;;;;;;;5054896;28;45471;-65
2022/03/19 12:05:49;;;;;;;;;50.25;39.75;;;;;;;;5062751;28;45481;-66
2022/03/19 12:08:17;;;;;;;;;53.25;45.25;;;;;;;;5067762;28;45823;-66
2022/03/19 12:11:00;;;;;;;;;60.25;49.25;;;;;;;;5049811;28;46215;-66
2022/03/19 12:13:28;;;;;;;;;55.25;46.00;;;;;;;;5040108;28;45510;-65
2022/03/19 12:15:57;;;;;;;;;58.75;47.50;;;;;;;;5052799;28;45424;-66
2022/03/19 12:18:32;;;;;;;;;45.75;40.25;;;;;;;;5052238;28;47334;-66
2022/03/19 12:21:13;;;;;;;;;53.00;44.00;;;;;;;;5049655;28;46170;-65
2022/03/19 12:23:51;;;;;;;;;50.50;41.75;;;;;;;;5049598;28;45639;-66
2022/03/19 12:26:17;;;;;;;;;46.75;41.00;;;;;;;;5067737;28;45319;-65
2022/03/19 12:28:46;;;;;;;;;51.50;40.25;;;;;;;;5049524;28;48749;-66
2022/03/19 12:31:13;;;;;;;;;46.75;38.75;;;;;;;;5035878;28;45551;-65
2022/03/19 12:33:38;;;;;;;;;53.50;42.75;;;;;;;;5074185;28;45346;-66
2022/03/19 12:36:30;;;;;;;;;52.75;39.75;;;;;;;;5049379;28;45378;-65
2022/03/19 12:39:00;;;;;;;;;63.25;48.50;;;;;;;;5065182;28;45712;-65
2022/03/19 12:41:31;;;;;;;;;52.50;40.25;;;;;;;;5049524;28;45425;-66
2022/03/19 12:43:58;;;;;;;;;58.75;45.50;;;;;;;;5049565;28;45462;-66
2022/03/19 12:46:34;;;;;;;;;47.75;41.25;;;;;;;;5067639;28;45409;-66
2022/03/19 12:49:07;;;;;;;;;52.25;42.75;;;;;;;;5051067;28;48782;-66
2022/03/19 12:51:33;;;;;;;;;52.50;43.25;;;;;;;;5054905;28;46712;-66
2022/03/19 12:53:59;;;;;;;;;55.00;44.00;;;;;;;;5049374;28;45432;-66
2022/03/19 12:56:25;;;;;;;;;43.50;38.25;;;;;;;;5067379;28;45512;-65
2022/03/19 12:58:55;;;;;;;;;42.25;36.00;;;;;;;;5049172;28;47858;-66
2022/03/19 13:01:24;;;;;;;;;52.00;42.25;;;;;;;;5049168;28;45488;-65
2022/03/19 13:04:01;;;;;;;;;50.50;40.75;;;;;;;;5056465;28;45372;-66
2022/03/19 13:06:30;;;;;;;;;52.25;44.75;;;;;;;;5074383;28;45441;-67
2022/03/19 13:08:56;;;;;;;;;57.25;44.75;;;;;;;;5052413;28;47741;-66
2022/03/19 13:11:21;;;;;;;;;48.50;40.75;;;;;;;;5052337;28;45439;-66
2022/03/19 13:13:47;;;;;;;;;51.75;43.25;;;;;;;;5070945;28;45477;-66
2022/03/19 13:16:31;;;;;;;;;36.25;32.75;;;;;;;;5071020;28;45424;-67
2022/03/19 13:18:57;;;;;;;;;47.50;38.75;;;;;;;;5054340;28;49551;-66
2022/03/19 13:21:22;;;;;;;;;44.50;38.25;;;;;;;;5057043;28;46478;-66
2022/03/19 13:23:48;;;;;;;;;41.50;34.00;;;;;;;;5052336;28;45405;-67
2022/03/19 13:26:16;;;;;;;;;47.25;40.25;;;;;;;;5052364;28;45464;-65
2022/03/19 13:28:59;;;;;;;;;49.00;40.75;;;;;;;;5052373;28;48759;-65
2022/03/19 13:31:25;;;;;;;;;48.50;40.25;;;;;;;;5024478;28;46354;-66
2022/03/19 13:33:50;;;;;;;;;45.50;38.75;;;;;;;;5056093;28;45497;-67
2022/03/19 13:36:17;;;;;;;;;45.75;40.00;;;;;;;;5072872;28;45404;-67
2022/03/19 13:38:43;;;;;;;;;53.50;43.50;;;;;;;;5070248;28;46147;-66
2022/03/19 13:41:18;;;;;;;;;56.00;44.25;;;;;;;;5052100;28;46073;-66
2022/03/19 13:43:43;;;;;;;;;54.25;44.75;;;;;;;;5052378;28;45499;-65
2022/03/19 13:46:16;;;;;;;;;46.75;39.25;;;;;;;;5052620;28;45413;-66
2022/03/19 13:48:41;;;;;;;;;53.75;44.75;;;;;;;;5067490;27;46845;-66
2022/03/19 13:51:07;;;;;;;;;49.50;41.00;;;;;;;;5070650;28;45326;-66
2022/03/19 13:53:42;;;;;;;;;50.25;39.75;;;;;;;;5070762;28;45567;-65
2022/03/19 13:56:09;;;;;;;;;49.25;39.75;;;;;;;;5052234;28;45375;-65
2022/03/19 13:58:34;;;;;;;;;44.50;38.25;;;;;;;;5070087;27;45546;-67
2022/03/19 14:01:09;;;;;;;;;45.75;35.75;;;;;;;;5071673;27;45525;-65
2022/03/19 14:03:40;;;;;;;;;50.75;42.25;;;;;;;;5076300;28;45424;-66
2022/03/19 14:06:05;;;;;;;;;50.75;41.00;;;;;;;;5070054;28;45615;-65
2022/03/19 14:08:30;;;;;;;;;54.50;42.50;;;;;;;;5051540;27;47767;-65
2022/03/19 14:10:56;;;;;;;;;52.75;43.00;;;;;;;;5069619;28;45523;-65
2022/03/19 14:13:39;;;;;;;;;50.25;41.50;;;;;;;;5051018;28;45415;-65
2022/03/19 14:16:08;;;;;;;;;53.25;43.00;;;;;;;;5053100;28;45592;-65
2022/03/19 14:18:34;;;;;;;;;56.25;44.00;;;;;;;;5058742;28;47647;-65
2022/03/19 14:21:00;;;;;;;;;54.00;43.50;;;;;;;;5050358;28;46231;-65
2022/03/19 14:23:25;;;;;;;;;48.00;40.50;;;;;;;;5051623;28;45482;-66
2022/03/19 14:25:51;;;;;;;;;41.50;36.00;;;;;;;;5069802;28;45457;-66
2022/03/19 14:28:17;;;;;;;;;35.75;33.00;;;;;;;;5051468;28;48535;-65
2022/03/19 14:30:44;;;;;;;;;47.00;39.25;;;;;;;;5075067;28;45409;-65
2022/03/19 14:33:09;;;;;;;;;49.50;41.50;;;;;;;;5069085;28;45432;-66
2022/03/19 14:35:40;;;;;;;;;58.75;48.25;;;;;;;;5051125;28;45613;-65
2022/03/19 14:38:05;;;;;;;;;58.25;47.75;;;;;;;;5051115;28;47224;-65